sensor_id;sensor_type;location;lat;lon;timestamp;P1;durP1;ratioP1;P2;durP2;ratioP2
56401;SDS011;42299;35.160;26.100;2023-03-23T00:01:09;16.35;;;6.72;;
56401;SDS011;42299;35.160;26.100;2023-03-23T00:02:33;12.38;;;6.13;;
56401;SDS011;42299;35.160;26.100;2023-03-23T00:03:58;14.45;;;6.63;;
56401;SDS011;42299;35.160;26.100;2023-03-23T00:05:21;11.20;;;6.28;;
56401;SDS011;42299;35.160;26.100;2023-03-23T00:06:43;14.65;;;6.13;;
56401;SDS011;42299;35.160;26.100;2023-03-23T00:08:07;17.25;;;7.57;;
56401;SDS011;42299;35.160;26.100;2023-03-23T00:09:32;12.55;;;6.75;;
56401;SDS011;42299;35.160;26.100;2023-03-23T00:11:01;10.52;;;5.75;;
56401;SDS011;42299;35.160;26.100;2023-03-23T00:12:23;10.27;;;6.03;;
56401;SDS011;42299;35.160;26.100;2023-03-23T00:13:53;12.15;;;6.35;;
56401;SDS011;42299;35.160;26.100;2023-03-23T00:15:19;13.10;;;6.25;;
56401;SDS011;42299;35.160;26.100;2023-03-23T00:16:45;12.88;;;6.60;;
56401;SDS011;42299;35.160;26.100;2023-03-23T00:18:07;15.77;;;7.07;;
56401;SDS011;42299;35.160;26.100;2023-03-23T00:19:29;15.65;;;8.10;;
56401;SDS011;42299;35.160;26.100;2023-03-23T00:20:53;13.68;;;7.13;;
56401;SDS011;42299;35.160;26.100;2023-03-23T00:22:17;15.43;;;7.47;;
56401;SDS011;42299;35.160;26.100;2023-03-23T00:23:41;15.95;;;7.68;;
56401;SDS011;42299;35.160;26.100;2023-03-23T00:25:06;13.75;;;8.48;;
56401;SDS011;42299;35.160;26.100;2023-03-23T00:26:29;21.65;;;11.10;;
56401;SDS011;42299;35.160;26.100;2023-03-23T00:27:54;16.52;;;10.07;;
56401;SDS011;42299;35.160;26.100;2023-03-23T00:29:17;18.40;;;9.48;;
56401;SDS011;42299;35.160;26.100;2023-03-23T00:30:45;14.02;;;7.32;;
56401;SDS011;42299;35.160;26.100;2023-03-23T00:32:08;13.85;;;8.27;;
56401;SDS011;42299;35.160;26.100;2023-03-23T00:33:33;18.65;;;8.95;;
56401;SDS011;42299;35.160;26.100;2023-03-23T00:35:01;16.75;;;8.40;;
56401;SDS011;42299;35.160;26.100;2023-03-23T00:36:24;15.57;;;8.35;;
56401;SDS011;42299;35.160;26.100;2023-03-23T00:37:47;15.25;;;8.18;;
56401;SDS011;42299;35.160;26.100;2023-03-23T00:39:09;16.95;;;8.70;;
56401;SDS011;42299;35.160;26.100;2023-03-23T00:40:32;14.05;;;7.55;;
56401;SDS011;42299;35.160;26.100;2023-03-23T00:41:56;14.98;;;8.40;;
56401;SDS011;42299;35.160;26.100;2023-03-23T00:43:21;17.48;;;7.95;;
56401;SDS011;42299;35.160;26.100;2023-03-23T00:44:44;14.80;;;8.10;;
56401;SDS011;42299;35.160;26.100;2023-03-23T00:46:09;19.42;;;12.00;;
56401;SDS011;42299;35.160;26.100;2023-03-23T00:47:32;17.40;;;8.13;;
56401;SDS011;42299;35.160;26.100;2023-03-23T00:48:58;14.07;;;7.80;;
56401;SDS011;42299;35.160;26.100;2023-03-23T00:50:20;14.85;;;7.70;;
56401;SDS011;42299;35.160;26.100;2023-03-23T00:51:43;21.70;;;16.50;;
56401;SDS011;42299;35.160;26.100;2023-03-23T00:53:05;55.03;;;49.05;;
56401;SDS011;42299;35.160;26.100;2023-03-23T00:54:28;74.95;;;66.95;;
56401;SDS011;42299;35.160;26.100;2023-03-23T00:55:50;43.97;;;36.63;;
56401;SDS011;42299;35.160;26.100;2023-03-23T00:57:13;45.35;;;38.33;;
56401;SDS011;42299;35.160;26.100;2023-03-23T00:58:36;31.45;;;26.60;;
56401;SDS011;42299;35.160;26.100;2023-03-23T00:59:58;28.05;;;21.23;;
56401;SDS011;42299;35.160;26.100;2023-03-23T01:01:22;28.48;;;19.95;;
56401;SDS011;42299;35.160;26.100;2023-03-23T01:02:43;23.48;;;16.30;;
56401;SDS011;42299;35.160;26.100;2023-03-23T01:04:06;25.42;;;17.23;;
56401;SDS011;42299;35.160;26.100;2023-03-23T01:05:29;21.85;;;13.15;;
56401;SDS011;42299;35.160;26.100;2023-03-23T01:06:52;19.17;;;9.57;;
56401;SDS011;42299;35.160;26.100;2023-03-23T01:08:14;25.92;;;17.05;;
56401;SDS011;42299;35.160;26.100;2023-03-23T01:09:36;26.08;;;17.42;;
56401;SDS011;42299;35.160;26.100;2023-03-23T01:11:03;20.65;;;11.82;;
56401;SDS011;42299;35.160;26.100;2023-03-23T01:12:28;20.98;;;14.48;;
56401;SDS011;42299;35.160;26.100;2023-03-23T01:13:51;28.45;;;14.13;;
56401;SDS011;42299;35.160;26.100;2023-03-23T01:15:15;24.73;;;14.70;;
56401;SDS011;42299;35.160;26.100;2023-03-23T01:16:40;26.30;;;16.88;;
56401;SDS011;42299;35.160;26.100;2023-03-23T01:18:03;24.23;;;14.55;;
56401;SDS011;42299;35.160;26.100;2023-03-23T01:19:26;24.98;;;12.95;;
56401;SDS011;42299;35.160;26.100;2023-03-23T01:20:51;20.63;;;12.93;;
56401;SDS011;42299;35.160;26.100;2023-03-23T01:22:12;20.52;;;11.38;;
56401;SDS011;42299;35.160;26.100;2023-03-23T01:23:35;19.52;;;10.55;;
56401;SDS011;42299;35.160;26.100;2023-03-23T01:24:57;23.13;;;13.65;;
56401;SDS011;42299;35.160;26.100;2023-03-23T01:26:20;21.50;;;12.00;;
56401;SDS011;42299;35.160;26.100;2023-03-23T01:27:45;19.73;;;11.88;;
56401;SDS011;42299;35.160;26.100;2023-03-23T01:29:06;19.42;;;7.75;;
56401;SDS011;42299;35.160;26.100;2023-03-23T01:30:28;17.98;;;8.07;;
56401;SDS011;42299;35.160;26.100;2023-03-23T01:31:51;16.73;;;7.15;;
56401;SDS011;42299;35.160;26.100;2023-03-23T01:33:14;15.27;;;6.32;;
56401;SDS011;42299;35.160;26.100;2023-03-23T01:34:36;14.95;;;8.05;;
56401;SDS011;42299;35.160;26.100;2023-03-23T01:36:02;17.50;;;9.50;;
56401;SDS011;42299;35.160;26.100;2023-03-23T01:37:24;17.52;;;7.93;;
56401;SDS011;42299;35.160;26.100;2023-03-23T01:38:49;16.42;;;7.35;;
56401;SDS011;42299;35.160;26.100;2023-03-23T01:40:12;20.27;;;8.25;;
56401;SDS011;42299;35.160;26.100;2023-03-23T01:41:35;18.55;;;8.02;;
56401;SDS011;42299;35.160;26.100;2023-03-23T01:43:07;18.83;;;8.32;;
56401;SDS011;42299;35.160;26.100;2023-03-23T01:46:38;17.02;;;7.82;;
56401;SDS011;42299;35.160;26.100;2023-03-23T01:48:05;20.05;;;9.05;;
56401;SDS011;42299;35.160;26.100;2023-03-23T01:49:33;19.35;;;9.80;;
56401;SDS011;42299;35.160;26.100;2023-03-23T01:50:59;20.42;;;10.38;;
56401;SDS011;42299;35.160;26.100;2023-03-23T01:52:26;30.45;;;19.50;;
56401;SDS011;42299;35.160;26.100;2023-03-23T01:53:55;42.83;;;33.15;;
56401;SDS011;42299;35.160;26.100;2023-03-23T01:55:22;70.82;;;62.10;;
56401;SDS011;42299;35.160;26.100;2023-03-23T01:56:47;134.52;;;120.43;;
56401;SDS011;42299;35.160;26.100;2023-03-23T01:58:12;48.47;;;39.10;;
56401;SDS011;42299;35.160;26.100;2023-03-23T01:59:34;49.60;;;39.85;;
56401;SDS011;42299;35.160;26.100;2023-03-23T02:01:14;32.33;;;27.55;;
56401;SDS011;42299;35.160;26.100;2023-03-23T02:02:38;22.50;;;17.02;;
56401;SDS011;42299;35.160;26.100;2023-03-23T02:04:01;15.50;;;8.68;;
56401;SDS011;42299;35.160;26.100;2023-03-23T02:05:26;17.63;;;8.07;;
56401;SDS011;42299;35.160;26.100;2023-03-23T02:06:53;19.80;;;9.50;;
56401;SDS011;42299;35.160;26.100;2023-03-23T02:08:20;21.33;;;9.23;;
56401;SDS011;42299;35.160;26.100;2023-03-23T02:09:44;19.60;;;11.05;;
56401;SDS011;42299;35.160;26.100;2023-03-23T02:11:11;17.83;;;7.47;;
56401;SDS011;42299;35.160;26.100;2023-03-23T02:12:35;19.05;;;7.63;;
56401;SDS011;42299;35.160;26.100;2023-03-23T02:13:56;20.20;;;8.45;;
56401;SDS011;42299;35.160;26.100;2023-03-23T02:15:19;19.00;;;7.53;;
56401;SDS011;42299;35.160;26.100;2023-03-23T02:16:43;15.73;;;7.70;;
56401;SDS011;42299;35.160;26.100;2023-03-23T02:18:13;18.80;;;8.07;;
56401;SDS011;42299;35.160;26.100;2023-03-23T02:19:55;18.83;;;7.72;;
56401;SDS011;42299;35.160;26.100;2023-03-23T02:21:44;25.48;;;9.63;;
56401;SDS011;42299;35.160;26.100;2023-03-23T02:23:29;27.27;;;11.25;;
56401;SDS011;42299;35.160;26.100;2023-03-23T02:25:17;21.95;;;9.85;;
56401;SDS011;42299;35.160;26.100;2023-03-23T02:26:57;22.88;;;10.85;;
56401;SDS011;42299;35.160;26.100;2023-03-23T02:30:22;19.77;;;10.90;;
56401;SDS011;42299;35.160;26.100;2023-03-23T02:32:00;21.25;;;8.80;;
56401;SDS011;42299;35.160;26.100;2023-03-23T02:33:35;22.05;;;10.13;;
56401;SDS011;42299;35.160;26.100;2023-03-23T02:35:03;30.55;;;12.43;;
56401;SDS011;42299;35.160;26.100;2023-03-23T02:36:32;28.15;;;12.82;;
56401;SDS011;42299;35.160;26.100;2023-03-23T02:38:06;25.33;;;12.27;;
56401;SDS011;42299;35.160;26.100;2023-03-23T02:39:32;28.48;;;13.75;;
56401;SDS011;42299;35.160;26.100;2023-03-23T02:41:00;23.92;;;12.15;;
56401;SDS011;42299;35.160;26.100;2023-03-23T02:42:24;20.85;;;11.13;;
56401;SDS011;42299;35.160;26.100;2023-03-23T02:43:53;25.95;;;14.07;;
56401;SDS011;42299;35.160;26.100;2023-03-23T02:45:18;31.05;;;23.33;;
56401;SDS011;42299;35.160;26.100;2023-03-23T02:46:41;28.35;;;14.73;;
56401;SDS011;42299;35.160;26.100;2023-03-23T02:48:05;33.63;;;19.85;;
56401;SDS011;42299;35.160;26.100;2023-03-23T02:49:31;31.65;;;22.20;;
56401;SDS011;42299;35.160;26.100;2023-03-23T02:50:56;37.63;;;17.45;;
56401;SDS011;42299;35.160;26.100;2023-03-23T02:52:21;25.92;;;14.70;;
56401;SDS011;42299;35.160;26.100;2023-03-23T02:53:47;20.80;;;10.15;;
56401;SDS011;42299;35.160;26.100;2023-03-23T02:55:11;17.30;;;9.23;;
56401;SDS011;42299;35.160;26.100;2023-03-23T02:56:36;16.25;;;8.60;;
56401;SDS011;42299;35.160;26.100;2023-03-23T02:58:10;18.67;;;7.60;;
56401;SDS011;42299;35.160;26.100;2023-03-23T02:59:36;16.95;;;8.55;;
56401;SDS011;42299;35.160;26.100;2023-03-23T03:00:59;17.17;;;8.50;;
56401;SDS011;42299;35.160;26.100;2023-03-23T03:02:21;19.95;;;8.55;;
56401;SDS011;42299;35.160;26.100;2023-03-23T03:03:47;17.80;;;6.75;;
56401;SDS011;42299;35.160;26.100;2023-03-23T03:05:11;14.60;;;6.60;;
56401;SDS011;42299;35.160;26.100;2023-03-23T03:06:44;17.55;;;7.78;;
56401;SDS011;42299;35.160;26.100;2023-03-23T03:08:13;18.83;;;7.70;;
56401;SDS011;42299;35.160;26.100;2023-03-23T03:09:43;17.90;;;8.55;;
56401;SDS011;42299;35.160;26.100;2023-03-23T03:11:11;19.88;;;12.35;;
56401;SDS011;42299;35.160;26.100;2023-03-23T03:12:37;20.02;;;12.70;;
56401;SDS011;42299;35.160;26.100;2023-03-23T03:14:04;34.33;;;20.92;;
56401;SDS011;42299;35.160;26.100;2023-03-23T03:15:33;37.33;;;20.95;;
56401;SDS011;42299;35.160;26.100;2023-03-23T03:16:58;29.48;;;16.60;;
56401;SDS011;42299;35.160;26.100;2023-03-23T03:18:27;27.92;;;13.80;;
56401;SDS011;42299;35.160;26.100;2023-03-23T03:19:55;42.45;;;22.35;;
56401;SDS011;42299;35.160;26.100;2023-03-23T03:21:22;27.02;;;16.55;;
56401;SDS011;42299;35.160;26.100;2023-03-23T03:22:49;23.00;;;14.63;;
56401;SDS011;42299;35.160;26.100;2023-03-23T03:24:15;20.45;;;14.95;;
56401;SDS011;42299;35.160;26.100;2023-03-23T03:25:44;22.08;;;11.88;;
56401;SDS011;42299;35.160;26.100;2023-03-23T03:27:17;22.02;;;11.13;;
56401;SDS011;42299;35.160;26.100;2023-03-23T03:28:52;21.92;;;10.80;;
56401;SDS011;42299;35.160;26.100;2023-03-23T03:30:16;22.27;;;10.98;;
56401;SDS011;42299;35.160;26.100;2023-03-23T03:31:41;17.45;;;8.23;;
56401;SDS011;42299;35.160;26.100;2023-03-23T03:33:08;15.38;;;9.25;;
56401;SDS011;42299;35.160;26.100;2023-03-23T03:34:31;12.60;;;6.82;;
56401;SDS011;42299;35.160;26.100;2023-03-23T03:35:54;16.00;;;8.90;;
56401;SDS011;42299;35.160;26.100;2023-03-23T03:37:19;14.13;;;7.10;;
56401;SDS011;42299;35.160;26.100;2023-03-23T03:38:43;13.38;;;6.80;;
56401;SDS011;42299;35.160;26.100;2023-03-23T03:40:09;19.13;;;7.95;;
56401;SDS011;42299;35.160;26.100;2023-03-23T03:41:34;20.48;;;9.48;;
56401;SDS011;42299;35.160;26.100;2023-03-23T03:42:59;18.80;;;8.68;;
56401;SDS011;42299;35.160;26.100;2023-03-23T03:44:21;15.07;;;8.27;;
56401;SDS011;42299;35.160;26.100;2023-03-23T03:45:43;26.35;;;9.20;;
56401;SDS011;42299;35.160;26.100;2023-03-23T03:47:06;15.27;;;8.63;;
56401;SDS011;42299;35.160;26.100;2023-03-23T03:48:27;19.58;;;9.13;;
56401;SDS011;42299;35.160;26.100;2023-03-23T03:49:50;23.55;;;11.73;;
56401;SDS011;42299;35.160;26.100;2023-03-23T03:51:12;22.27;;;11.88;;
56401;SDS011;42299;35.160;26.100;2023-03-23T03:52:40;20.45;;;9.73;;
56401;SDS011;42299;35.160;26.100;2023-03-23T03:54:02;17.77;;;8.93;;
56401;SDS011;42299;35.160;26.100;2023-03-23T03:55:24;17.83;;;8.80;;
56401;SDS011;42299;35.160;26.100;2023-03-23T03:56:48;16.88;;;8.80;;
56401;SDS011;42299;35.160;26.100;2023-03-23T03:58:44;17.08;;;8.25;;
56401;SDS011;42299;35.160;26.100;2023-03-23T04:00:20;19.15;;;8.40;;
56401;SDS011;42299;35.160;26.100;2023-03-23T04:01:44;21.02;;;8.70;;
56401;SDS011;42299;35.160;26.100;2023-03-23T04:03:07;17.00;;;8.50;;
56401;SDS011;42299;35.160;26.100;2023-03-23T04:04:51;15.27;;;7.22;;
56401;SDS011;42299;35.160;26.100;2023-03-23T04:06:14;17.25;;;7.65;;
56401;SDS011;42299;35.160;26.100;2023-03-23T04:07:38;14.65;;;7.03;;
56401;SDS011;42299;35.160;26.100;2023-03-23T04:09:02;19.38;;;7.05;;
56401;SDS011;42299;35.160;26.100;2023-03-23T04:10:29;16.73;;;7.00;;
56401;SDS011;42299;35.160;26.100;2023-03-23T04:11:54;21.15;;;7.05;;
56401;SDS011;42299;35.160;26.100;2023-03-23T04:13:35;24.95;;;7.47;;
56401;SDS011;42299;35.160;26.100;2023-03-23T04:15:09;19.38;;;7.68;;
56401;SDS011;42299;35.160;26.100;2023-03-23T04:16:32;17.48;;;7.90;;
56401;SDS011;42299;35.160;26.100;2023-03-23T04:17:56;17.75;;;9.25;;
56401;SDS011;42299;35.160;26.100;2023-03-23T04:19:18;24.10;;;9.48;;
56401;SDS011;42299;35.160;26.100;2023-03-23T04:20:42;17.88;;;7.55;;
56401;SDS011;42299;35.160;26.100;2023-03-23T04:22:08;16.10;;;7.35;;
56401;SDS011;42299;35.160;26.100;2023-03-23T04:23:33;20.77;;;8.45;;
56401;SDS011;42299;35.160;26.100;2023-03-23T04:24:57;16.38;;;8.60;;
56401;SDS011;42299;35.160;26.100;2023-03-23T04:26:25;20.00;;;10.80;;
56401;SDS011;42299;35.160;26.100;2023-03-23T04:27:52;19.55;;;9.95;;
56401;SDS011;42299;35.160;26.100;2023-03-23T04:29:18;19.27;;;9.00;;
56401;SDS011;42299;35.160;26.100;2023-03-23T04:30:58;18.10;;;9.93;;
56401;SDS011;42299;35.160;26.100;2023-03-23T04:32:22;16.92;;;9.98;;
56401;SDS011;42299;35.160;26.100;2023-03-23T04:33:48;15.32;;;7.15;;
56401;SDS011;42299;35.160;26.100;2023-03-23T04:35:13;16.33;;;7.85;;
56401;SDS011;42299;35.160;26.100;2023-03-23T04:36:41;14.18;;;5.70;;
56401;SDS011;42299;35.160;26.100;2023-03-23T04:38:09;15.93;;;5.80;;
56401;SDS011;42299;35.160;26.100;2023-03-23T04:39:33;17.58;;;7.40;;
56401;SDS011;42299;35.160;26.100;2023-03-23T04:40:57;16.15;;;5.93;;
56401;SDS011;42299;35.160;26.100;2023-03-23T04:42:40;15.75;;;5.85;;
56401;SDS011;42299;35.160;26.100;2023-03-23T04:44:20;14.00;;;6.22;;
56401;SDS011;42299;35.160;26.100;2023-03-23T04:45:54;15.20;;;6.70;;
56401;SDS011;42299;35.160;26.100;2023-03-23T04:47:19;16.67;;;7.55;;
56401;SDS011;42299;35.160;26.100;2023-03-23T04:48:47;16.90;;;5.82;;
56401;SDS011;42299;35.160;26.100;2023-03-23T04:50:18;16.23;;;7.38;;
56401;SDS011;42299;35.160;26.100;2023-03-23T04:51:44;14.48;;;7.47;;
56401;SDS011;42299;35.160;26.100;2023-03-23T04:53:15;17.80;;;8.52;;
56401;SDS011;42299;35.160;26.100;2023-03-23T04:54:40;13.60;;;7.15;;
56401;SDS011;42299;35.160;26.100;2023-03-23T04:56:03;17.27;;;7.95;;
56401;SDS011;42299;35.160;26.100;2023-03-23T04:57:32;13.88;;;6.65;;
56401;SDS011;42299;35.160;26.100;2023-03-23T04:59:21;13.13;;;5.88;;
56401;SDS011;42299;35.160;26.100;2023-03-23T05:01:14;17.63;;;7.90;;
56401;SDS011;42299;35.160;26.100;2023-03-23T05:02:58;21.55;;;9.00;;
56401;SDS011;42299;35.160;26.100;2023-03-23T05:04:22;42.33;;;17.20;;
56401;SDS011;42299;35.160;26.100;2023-03-23T05:06:06;21.15;;;8.60;;
56401;SDS011;42299;35.160;26.100;2023-03-23T05:07:30;12.27;;;6.07;;
56401;SDS011;42299;35.160;26.100;2023-03-23T05:08:53;14.32;;;6.78;;
56401;SDS011;42299;35.160;26.100;2023-03-23T05:10:18;13.50;;;6.47;;
56401;SDS011;42299;35.160;26.100;2023-03-23T05:11:41;18.40;;;6.15;;
56401;SDS011;42299;35.160;26.100;2023-03-23T05:13:04;16.73;;;5.60;;
56401;SDS011;42299;35.160;26.100;2023-03-23T05:14:27;13.40;;;6.28;;
56401;SDS011;42299;35.160;26.100;2023-03-23T05:16:02;14.02;;;6.43;;
56401;SDS011;42299;35.160;26.100;2023-03-23T05:17:27;18.25;;;6.70;;
56401;SDS011;42299;35.160;26.100;2023-03-23T05:18:52;12.95;;;5.70;;
56401;SDS011;42299;35.160;26.100;2023-03-23T05:20:17;20.77;;;7.07;;
56401;SDS011;42299;35.160;26.100;2023-03-23T05:21:47;11.60;;;6.05;;
56401;SDS011;42299;35.160;26.100;2023-03-23T05:23:08;16.92;;;6.57;;
56401;SDS011;42299;35.160;26.100;2023-03-23T05:24:32;11.77;;;5.20;;
56401;SDS011;42299;35.160;26.100;2023-03-23T05:25:58;13.43;;;5.40;;
56401;SDS011;42299;35.160;26.100;2023-03-23T05:27:23;12.18;;;4.78;;
56401;SDS011;42299;35.160;26.100;2023-03-23T05:28:53;10.32;;;4.85;;
56401;SDS011;42299;35.160;26.100;2023-03-23T05:30:29;10.95;;;5.38;;
56401;SDS011;42299;35.160;26.100;2023-03-23T05:31:53;10.27;;;4.50;;
56401;SDS011;42299;35.160;26.100;2023-03-23T05:33:16;10.00;;;4.85;;
56401;SDS011;42299;35.160;26.100;2023-03-23T05:34:43;12.40;;;4.35;;
56401;SDS011;42299;35.160;26.100;2023-03-23T05:36:05;10.23;;;4.50;;
56401;SDS011;42299;35.160;26.100;2023-03-23T05:37:51;13.65;;;4.15;;
56401;SDS011;42299;35.160;26.100;2023-03-23T05:39:16;12.73;;;4.45;;
56401;SDS011;42299;35.160;26.100;2023-03-23T05:40:59;15.48;;;5.03;;
56401;SDS011;42299;35.160;26.100;2023-03-23T05:42:32;9.40;;;4.22;;
56401;SDS011;42299;35.160;26.100;2023-03-23T05:44:04;13.43;;;4.75;;
56401;SDS011;42299;35.160;26.100;2023-03-23T05:45:39;9.93;;;4.22;;
56401;SDS011;42299;35.160;26.100;2023-03-23T05:47:02;9.98;;;4.75;;
56401;SDS011;42299;35.160;26.100;2023-03-23T05:48:26;12.02;;;4.90;;
56401;SDS011;42299;35.160;26.100;2023-03-23T05:49:47;15.07;;;4.82;;
56401;SDS011;42299;35.160;26.100;2023-03-23T05:51:12;10.65;;;5.15;;
56401;SDS011;42299;35.160;26.100;2023-03-23T05:52:37;13.30;;;4.85;;
56401;SDS011;42299;35.160;26.100;2023-03-23T05:54:04;13.15;;;4.90;;
56401;SDS011;42299;35.160;26.100;2023-03-23T05:55:28;14.23;;;5.15;;
56401;SDS011;42299;35.160;26.100;2023-03-23T05:57:01;14.63;;;6.05;;
56401;SDS011;42299;35.160;26.100;2023-03-23T05:58:37;13.10;;;4.93;;
56401;SDS011;42299;35.160;26.100;2023-03-23T06:00:00;12.07;;;4.70;;
56401;SDS011;42299;35.160;26.100;2023-03-23T06:01:36;11.43;;;5.38;;
56401;SDS011;42299;35.160;26.100;2023-03-23T06:02:59;14.40;;;5.18;;
56401;SDS011;42299;35.160;26.100;2023-03-23T06:04:44;7.93;;;3.63;;
56401;SDS011;42299;35.160;26.100;2023-03-23T06:06:18;15.07;;;4.75;;
56401;SDS011;42299;35.160;26.100;2023-03-23T06:07:58;15.63;;;4.60;;
56401;SDS011;42299;35.160;26.100;2023-03-23T06:09:23;14.23;;;4.15;;
56401;SDS011;42299;35.160;26.100;2023-03-23T06:11:06;11.00;;;4.82;;
56401;SDS011;42299;35.160;26.100;2023-03-23T06:12:37;15.57;;;4.72;;
56401;SDS011;42299;35.160;26.100;2023-03-23T06:14:14;10.45;;;4.70;;
56401;SDS011;42299;35.160;26.100;2023-03-23T06:15:38;17.27;;;7.40;;
56401;SDS011;42299;35.160;26.100;2023-03-23T06:17:24;11.60;;;4.28;;
56401;SDS011;42299;35.160;26.100;2023-03-23T06:18:47;14.02;;;5.70;;
56401;SDS011;42299;35.160;26.100;2023-03-23T06:20:15;28.65;;;12.52;;
56401;SDS011;42299;35.160;26.100;2023-03-23T06:21:38;15.98;;;7.85;;
56401;SDS011;42299;35.160;26.100;2023-03-23T06:23:23;23.05;;;13.15;;
56401;SDS011;42299;35.160;26.100;2023-03-23T06:24:47;24.02;;;15.75;;
56401;SDS011;42299;35.160;26.100;2023-03-23T06:26:13;34.10;;;30.45;;
56401;SDS011;42299;35.160;26.100;2023-03-23T06:27:41;32.35;;;28.60;;
56401;SDS011;42299;35.160;26.100;2023-03-23T06:29:04;22.48;;;17.80;;
56401;SDS011;42299;35.160;26.100;2023-03-23T06:30:34;28.77;;;25.90;;
56401;SDS011;42299;35.160;26.100;2023-03-23T06:31:58;24.77;;;19.90;;
56401;SDS011;42299;35.160;26.100;2023-03-23T06:33:23;19.55;;;11.63;;
56401;SDS011;42299;35.160;26.100;2023-03-23T06:35:02;9.80;;;4.22;;
56401;SDS011;42299;35.160;26.100;2023-03-23T06:36:44;11.00;;;6.80;;
56401;SDS011;42299;35.160;26.100;2023-03-23T06:38:12;23.60;;;18.92;;
56401;SDS011;42299;35.160;26.100;2023-03-23T06:39:47;43.10;;;38.30;;
56401;SDS011;42299;35.160;26.100;2023-03-23T06:41:32;37.50;;;33.35;;
56401;SDS011;42299;35.160;26.100;2023-03-23T06:42:57;14.05;;;8.40;;
56401;SDS011;42299;35.160;26.100;2023-03-23T06:44:20;13.05;;;8.45;;
56401;SDS011;42299;35.160;26.100;2023-03-23T06:45:43;11.50;;;6.70;;
56401;SDS011;42299;35.160;26.100;2023-03-23T06:47:22;15.57;;;7.00;;
56401;SDS011;42299;35.160;26.100;2023-03-23T06:48:45;13.63;;;8.30;;
56401;SDS011;42299;35.160;26.100;2023-03-23T06:50:11;14.60;;;5.03;;
56401;SDS011;42299;35.160;26.100;2023-03-23T06:51:34;9.77;;;4.63;;
56401;SDS011;42299;35.160;26.100;2023-03-23T06:52:57;10.00;;;4.28;;
56401;SDS011;42299;35.160;26.100;2023-03-23T06:54:19;18.77;;;13.52;;
56401;SDS011;42299;35.160;26.100;2023-03-23T06:55:42;19.50;;;14.63;;
56401;SDS011;42299;35.160;26.100;2023-03-23T06:57:06;12.95;;;4.78;;
56401;SDS011;42299;35.160;26.100;2023-03-23T06:58:31;11.13;;;3.83;;
56401;SDS011;42299;35.160;26.100;2023-03-23T06:59:52;13.07;;;6.40;;
56401;SDS011;42299;35.160;26.100;2023-03-23T07:01:17;15.18;;;11.45;;
56401;SDS011;42299;35.160;26.100;2023-03-23T07:02:48;23.65;;;18.38;;
56401;SDS011;42299;35.160;26.100;2023-03-23T07:04:11;16.40;;;11.93;;
56401;SDS011;42299;35.160;26.100;2023-03-23T07:05:46;15.43;;;9.73;;
56401;SDS011;42299;35.160;26.100;2023-03-23T07:07:10;23.15;;;12.73;;
56401;SDS011;42299;35.160;26.100;2023-03-23T07:08:42;46.28;;;23.33;;
56401;SDS011;42299;35.160;26.100;2023-03-23T07:10:09;54.92;;;31.27;;
56401;SDS011;42299;35.160;26.100;2023-03-23T07:11:33;29.15;;;15.68;;
56401;SDS011;42299;35.160;26.100;2023-03-23T07:13:01;84.80;;;51.10;;
56401;SDS011;42299;35.160;26.100;2023-03-23T07:14:35;84.82;;;51.75;;
56401;SDS011;42299;35.160;26.100;2023-03-23T07:15:58;45.55;;;27.67;;
56401;SDS011;42299;35.160;26.100;2023-03-23T07:17:22;41.70;;;26.77;;
56401;SDS011;42299;35.160;26.100;2023-03-23T07:19:05;34.28;;;24.17;;
56401;SDS011;42299;35.160;26.100;2023-03-23T07:20:27;31.88;;;18.77;;
56401;SDS011;42299;35.160;26.100;2023-03-23T07:21:50;24.45;;;13.85;;
56401;SDS011;42299;35.160;26.100;2023-03-23T07:23:15;21.67;;;11.57;;
56401;SDS011;42299;35.160;26.100;2023-03-23T07:24:42;44.80;;;23.98;;
56401;SDS011;42299;35.160;26.100;2023-03-23T07:26:13;57.50;;;36.83;;
56401;SDS011;42299;35.160;26.100;2023-03-23T07:27:43;38.05;;;24.10;;
56401;SDS011;42299;35.160;26.100;2023-03-23T07:29:10;53.03;;;33.17;;
56401;SDS011;42299;35.160;26.100;2023-03-23T07:30:39;27.35;;;20.95;;
56401;SDS011;42299;35.160;26.100;2023-03-23T07:32:03;64.47;;;50.45;;
56401;SDS011;42299;35.160;26.100;2023-03-23T07:33:26;56.13;;;43.78;;
56401;SDS011;42299;35.160;26.100;2023-03-23T07:34:51;44.53;;;33.65;;
56401;SDS011;42299;35.160;26.100;2023-03-23T07:36:24;22.73;;;15.88;;
56401;SDS011;42299;35.160;26.100;2023-03-23T07:37:48;23.15;;;15.73;;
56401;SDS011;42299;35.160;26.100;2023-03-23T07:39:11;23.17;;;12.77;;
56401;SDS011;42299;35.160;26.100;2023-03-23T07:40:34;39.05;;;25.33;;
56401;SDS011;42299;35.160;26.100;2023-03-23T07:42:08;70.63;;;48.45;;
56401;SDS011;42299;35.160;26.100;2023-03-23T07:43:53;92.90;;;53.45;;
56401;SDS011;42299;35.160;26.100;2023-03-23T07:45:28;195.10;;;118.47;;
56401;SDS011;42299;35.160;26.100;2023-03-23T07:46:54;152.30;;;90.78;;
56401;SDS011;42299;35.160;26.100;2023-03-23T07:48:23;127.13;;;68.47;;
56401;SDS011;42299;35.160;26.100;2023-03-23T07:49:47;153.00;;;93.32;;
56401;SDS011;42299;35.160;26.100;2023-03-23T07:51:42;115.18;;;70.07;;
56401;SDS011;42299;35.160;26.100;2023-03-23T07:53:07;92.97;;;53.22;;
56401;SDS011;42299;35.160;26.100;2023-03-23T07:54:30;75.97;;;48.30;;
56401;SDS011;42299;35.160;26.100;2023-03-23T07:55:59;63.85;;;41.00;;
56401;SDS011;42299;35.160;26.100;2023-03-23T08:00:28;19.08;;;9.70;;
56401;SDS011;42299;35.160;26.100;2023-03-23T08:01:58;19.48;;;9.45;;
56401;SDS011;42299;35.160;26.100;2023-03-23T08:03:40;11.95;;;5.75;;
56401;SDS011;42299;35.160;26.100;2023-03-23T08:05:11;12.20;;;6.18;;
56401;SDS011;42299;35.160;26.100;2023-03-23T08:07:01;18.10;;;7.32;;
56401;SDS011;42299;35.160;26.100;2023-03-23T08:08:46;11.35;;;4.13;;
56401;SDS011;42299;35.160;26.100;2023-03-23T08:10:28;11.00;;;5.50;;
56401;SDS011;42299;35.160;26.100;2023-03-23T08:12:17;17.80;;;8.23;;
56401;SDS011;42299;35.160;26.100;2023-03-23T08:14:00;17.17;;;5.55;;
56401;SDS011;42299;35.160;26.100;2023-03-23T08:15:34;17.60;;;8.40;;
56401;SDS011;42299;35.160;26.100;2023-03-23T08:17:08;21.42;;;10.10;;
56401;SDS011;42299;35.160;26.100;2023-03-23T08:18:51;22.85;;;9.50;;
56401;SDS011;42299;35.160;26.100;2023-03-23T08:20:37;29.85;;;17.13;;
56401;SDS011;42299;35.160;26.100;2023-03-23T08:22:12;26.40;;;16.05;;
56401;SDS011;42299;35.160;26.100;2023-03-23T08:23:53;21.40;;;12.63;;
56401;SDS011;42299;35.160;26.100;2023-03-23T08:25:52;46.90;;;32.65;;
56401;SDS011;42299;35.160;26.100;2023-03-23T08:27:35;18.02;;;10.00;;
56401;SDS011;42299;35.160;26.100;2023-03-23T08:29:21;19.65;;;9.65;;
56401;SDS011;42299;35.160;26.100;2023-03-23T08:30:46;19.20;;;8.50;;
56401;SDS011;42299;35.160;26.100;2023-03-23T08:32:23;13.90;;;7.05;;
56401;SDS011;42299;35.160;26.100;2023-03-23T08:34:05;18.92;;;8.77;;
56401;SDS011;42299;35.160;26.100;2023-03-23T08:35:55;15.15;;;7.32;;
56401;SDS011;42299;35.160;26.100;2023-03-23T08:37:36;18.77;;;10.70;;
56401;SDS011;42299;35.160;26.100;2023-03-23T08:39:20;21.20;;;12.02;;
56401;SDS011;42299;35.160;26.100;2023-03-23T08:41:04;13.25;;;7.53;;